createdAt,value
2022-09-10T00:02:04.083Z,35.20
2022-09-10T00:05:07.747Z,35.00
2022-09-10T00:08:10.768Z,34.90
2022-09-10T00:11:14.951Z,35.10
2022-09-10T00:14:22.577Z,35.00
2022-09-10T00:17:24.561Z,34.70
2022-09-10T00:20:26.998Z,34.60
2022-09-10T00:23:30.307Z,34.60
2022-09-10T00:26:38.062Z,34.20
2022-09-10T00:29:39.985Z,34.40
2022-09-10T00:32:42.044Z,34.50
2022-09-10T00:35:46.184Z,34.60
2022-09-10T00:38:50.446Z,34.80
2022-09-10T00:41:55.039Z,34.80
2022-09-10T00:45:01.505Z,34.90
2022-09-10T00:48:11.571Z,34.90
2022-09-10T00:51:13.755Z,34.90
2022-09-10T00:54:19.612Z,34.80
2022-09-10T00:57:23.923Z,34.70
2022-09-10T01:00:26.092Z,34.60
2022-09-10T01:03:30.143Z,34.60
2022-09-10T01:06:32.560Z,34.70
2022-09-10T01:09:34.726Z,34.80
2022-09-10T01:12:46.693Z,34.80
2022-09-10T01:16:26.200Z,34.60
2022-09-10T01:19:49.781Z,34.60
2022-09-10T01:23:17.584Z,34.70
2022-09-10T01:26:51.021Z,34.80
2022-09-10T01:29:58.498Z,34.90
2022-09-10T01:33:09.702Z,35.00
2022-09-10T01:36:21.257Z,35.00
2022-09-10T01:39:24.532Z,34.90
2022-09-10T01:42:28.065Z,34.90
2022-09-10T01:45:48.973Z,34.80
2022-09-10T01:48:57.346Z,34.90
2022-09-10T01:52:25.382Z,35.00
2022-09-10T01:55:41.854Z,34.90
2022-09-10T01:58:45.015Z,34.80
2022-09-10T02:01:52.408Z,35.00
2022-09-10T02:04:54.867Z,35.20
2022-09-10T02:08:03.734Z,35.20
2022-09-10T02:11:09.452Z,35.30
2022-09-10T02:14:14.138Z,35.40
2022-09-10T02:17:17.012Z,35.30
2022-09-10T02:20:21.900Z,35.30
2022-09-10T02:23:45.242Z,35.20
2022-09-10T02:26:47.459Z,35.30
2022-09-10T02:29:50.165Z,35.40
2022-09-10T02:32:52.345Z,35.40
2022-09-10T02:35:55.134Z,35.30
2022-09-10T02:38:57.734Z,35.40
2022-09-10T02:41:59.741Z,35.50
2022-09-10T02:45:01.818Z,35.60
2022-09-10T02:48:04.272Z,35.60
2022-09-10T02:51:06.389Z,35.60
2022-09-10T02:54:08.570Z,35.60
2022-09-10T02:57:12.240Z,35.70
2022-09-10T03:00:14.452Z,35.70
2022-09-10T03:03:17.258Z,35.70
2022-09-10T03:06:21.200Z,35.70
2022-09-10T03:09:23.382Z,35.60
2022-09-10T03:12:25.297Z,35.60
2022-09-10T03:15:27.805Z,35.50
2022-09-10T03:18:31.730Z,35.50
2022-09-10T03:21:34.358Z,35.50
2022-09-10T03:24:36.213Z,35.40
2022-09-10T03:27:38.547Z,35.40
2022-09-10T03:30:40.680Z,35.20
2022-09-10T03:33:42.788Z,35.20
2022-09-10T03:36:47.327Z,35.20
2022-09-10T03:39:49.895Z,35.30
2022-09-10T03:42:51.824Z,35.40
2022-09-10T03:45:53.904Z,35.40
2022-09-10T03:48:55.954Z,35.40
2022-09-10T03:51:58.114Z,35.50
2022-09-10T03:54:59.966Z,35.50
2022-09-10T03:58:01.991Z,35.50
2022-09-10T04:01:04.485Z,35.50
2022-09-10T04:04:08.390Z,35.60
2022-09-10T04:07:10.812Z,35.60
2022-09-10T04:10:13.344Z,35.60
2022-09-10T04:13:15.271Z,35.60
2022-09-10T04:16:18.176Z,35.60
2022-09-10T04:19:20.090Z,35.70
2022-09-10T04:22:22.588Z,35.70
2022-09-10T04:25:24.476Z,35.70
2022-09-10T04:28:26.800Z,35.70
2022-09-10T04:31:28.713Z,35.60
2022-09-10T04:34:30.763Z,35.60
2022-09-10T04:37:33.168Z,35.60
2022-09-10T04:40:35.585Z,35.60
2022-09-10T04:43:38.298Z,35.60
2022-09-10T04:46:41.898Z,35.70
2022-09-10T04:49:43.989Z,35.60
2022-09-10T04:52:46.481Z,35.50
2022-09-10T04:55:49.202Z,35.50
2022-09-10T04:58:51.797Z,35.50
2022-09-10T05:01:53.900Z,35.60
2022-09-10T05:04:55.987Z,35.60
2022-09-10T05:08:00.124Z,35.60
2022-09-10T05:11:02.875Z,35.60
2022-09-10T05:14:05.015Z,35.60
2022-09-10T05:17:07.167Z,35.60
2022-09-10T05:20:10.133Z,35.70
2022-09-10T05:23:13.528Z,35.70
2022-09-10T05:26:15.537Z,35.60
2022-09-10T05:45:54.944Z,33.80
2022-09-10T05:48:57.991Z,33.90
2022-09-10T05:51:59.935Z,34.40
2022-09-10T05:55:02.129Z,34.70
2022-09-10T05:58:04.355Z,34.70
2022-09-10T06:01:06.635Z,34.90
2022-09-10T06:04:10.389Z,35.00
2022-09-10T06:07:12.971Z,35.10
2022-09-10T06:10:16.320Z,35.30
2022-09-10T06:13:20.023Z,35.20
2022-09-10T06:16:22.041Z,35.10
2022-09-10T06:19:25.011Z,35.10
2022-09-10T06:22:27.994Z,35.20
2022-09-10T06:25:31.179Z,35.20
2022-09-10T06:28:33.914Z,35.30
2022-09-10T06:31:35.976Z,35.40
2022-09-10T06:34:37.944Z,35.40
2022-09-10T06:37:40.121Z,35.30
2022-09-10T06:40:52.592Z,35.10
2022-09-10T06:43:54.653Z,35.30
2022-09-10T06:47:30.762Z,35.10
2022-09-10T06:50:18.643Z,35.30
2022-09-10T06:53:22.188Z,35.40
2022-09-10T06:56:24.304Z,35.40
2022-09-10T06:59:26.182Z,35.40
2022-09-10T07:02:28.223Z,35.40
2022-09-10T07:05:33.103Z,35.60
2022-09-10T07:08:37.678Z,35.70
2022-09-10T07:11:41.806Z,35.60
2022-09-10T07:14:44.161Z,35.60
2022-09-10T07:17:46.670Z,35.60
2022-09-10T07:20:48.841Z,35.50
2022-09-10T07:23:55.319Z,35.50
2022-09-10T07:26:57.776Z,35.40
2022-09-10T07:29:59.613Z,35.50
2022-09-10T07:33:01.679Z,35.30
2022-09-10T07:36:03.647Z,35.30
2022-09-10T07:39:05.721Z,35.20
2022-09-10T07:42:07.662Z,35.20
2022-09-10T07:45:15.682Z,35.00
2022-09-10T07:48:17.652Z,35.10
2022-09-10T07:51:19.865Z,35.20
2022-09-10T07:54:22.536Z,35.00
2022-09-10T07:57:24.648Z,35.20
2022-09-10T08:00:26.554Z,35.40
2022-09-10T08:03:29.574Z,35.70
2022-09-10T08:06:33.959Z,36.00
2022-09-10T08:09:36.012Z,36.10
2022-09-10T08:12:39.633Z,36.10
2022-09-10T08:15:44.978Z,36.10
2022-09-10T08:18:47.968Z,36.00
2022-09-10T08:21:50.018Z,36.00
2022-09-10T08:24:51.858Z,36.20
2022-09-10T08:27:54.699Z,36.20
2022-09-10T08:31:02.006Z,36.10
2022-09-10T08:34:04.165Z,36.20
2022-09-10T08:37:06.543Z,36.40
2022-09-10T08:40:11.925Z,36.50
2022-09-10T08:43:15.094Z,36.60
2022-09-10T08:46:27.689Z,36.70
2022-09-10T08:49:47.826Z,36.60
2022-09-10T08:53:18.551Z,36.70
2022-09-10T08:56:23.057Z,36.80
2022-09-10T08:59:29.117Z,36.80
2022-09-10T09:02:52.237Z,36.80
2022-09-10T09:05:58.507Z,36.80
2022-09-10T09:09:01.785Z,36.80
2022-09-10T09:12:19.009Z,36.90
2022-09-10T09:15:31.552Z,37.00
2022-09-10T09:19:14.815Z,37.10
2022-09-10T09:22:16.650Z,37.10
2022-09-10T09:25:23.670Z,37.30
2022-09-10T09:28:57.015Z,37.40
2022-09-10T09:32:02.904Z,37.50
2022-09-10T09:35:28.537Z,37.50
2022-09-10T09:38:41.442Z,37.50
2022-09-10T09:42:32.884Z,37.50
2022-09-10T09:45:54.540Z,37.50
2022-09-10T09:49:00.075Z,37.50
2022-09-10T09:52:15.089Z,37.30
2022-09-10T09:55:44.028Z,37.30
2022-09-10T09:58:50.132Z,37.20
2022-09-10T10:01:52.542Z,36.80
2022-09-10T10:05:07.147Z,36.80
2022-09-10T10:08:41.222Z,36.70
2022-09-10T10:12:06.368Z,36.90
2022-09-10T10:15:41.810Z,37.10
2022-09-10T10:18:45.419Z,36.80
2022-09-10T10:21:47.394Z,37.20
2022-09-10T10:24:52.566Z,37.20
2022-09-10T10:27:54.519Z,37.30
2022-09-10T10:31:01.148Z,37.20
2022-09-10T10:34:19.852Z,37.40
2022-09-10T10:37:56.714Z,37.60
2022-09-10T10:41:51.898Z,37.50
2022-09-10T10:45:10.866Z,37.40
2022-09-10T10:48:43.062Z,37.40
2022-09-10T10:52:05.466Z,37.60
2022-09-10T10:55:21.589Z,37.80
2022-09-10T10:58:59.581Z,37.90
2022-09-10T11:02:14.204Z,37.50
2022-09-10T11:05:19.019Z,37.40
2022-09-10T11:08:27.831Z,37.40
2022-09-10T11:11:57.668Z,37.30
2022-09-10T11:15:02.474Z,37.10
2022-09-10T11:18:13.524Z,36.90
2022-09-10T11:21:29.777Z,36.90
2022-09-10T11:24:45.588Z,37.10
2022-09-10T11:28:04.182Z,37.20
2022-09-10T11:31:15.543Z,37.20
2022-09-10T11:34:25.936Z,37.60
2022-09-10T11:37:40.254Z,37.60
2022-09-10T11:41:11.083Z,37.80
2022-09-10T11:44:16.423Z,37.90
2022-09-10T11:47:32.814Z,37.80
2022-09-10T11:50:47.955Z,37.50
2022-09-10T11:53:50.876Z,37.30
2022-09-10T11:57:01.032Z,37.30
2022-09-10T12:00:12.423Z,37.20
2022-09-10T12:03:24.288Z,36.90
2022-09-10T12:06:56.864Z,37.10
2022-09-10T12:10:30.318Z,37.40
2022-09-10T12:13:36.139Z,37.30
2022-09-10T12:16:48.202Z,37.20
2022-09-10T12:19:54.728Z,37.40
2022-09-10T12:22:57.162Z,37.60
2022-09-10T12:26:03.071Z,37.80
2022-09-10T12:29:05.412Z,37.60
2022-09-10T12:32:19.705Z,37.90
2022-09-10T12:35:31.208Z,38.00
2022-09-10T12:38:49.260Z,37.80
2022-09-10T12:41:51.528Z,37.50
2022-09-10T12:44:54.242Z,37.90
2022-09-10T12:47:56.508Z,37.90
2022-09-10T12:51:01.632Z,37.60
2022-09-10T12:54:20.255Z,37.50
2022-09-10T12:57:37.337Z,37.20
2022-09-10T13:00:53.921Z,37.20
2022-09-10T13:03:58.744Z,37.80
2022-09-10T13:07:23.294Z,38.30
2022-09-10T13:10:27.476Z,38.10
2022-09-10T13:13:37.614Z,37.80
2022-09-10T13:16:41.807Z,37.50
2022-09-10T13:19:49.428Z,37.60
2022-09-10T13:23:09.641Z,37.50
2022-09-10T13:26:31.069Z,37.30
2022-09-10T13:30:10.399Z,37.40
2022-09-10T13:33:17.701Z,37.20
2022-09-10T13:36:34.346Z,37.00
2022-09-10T13:40:06.306Z,37.20
2022-09-10T13:43:33.904Z,36.90
2022-09-10T13:46:46.709Z,36.70
2022-09-10T13:50:01.228Z,36.50
2022-09-10T13:53:08.868Z,36.60
2022-09-10T13:56:22.679Z,36.70
2022-09-10T13:59:31.190Z,36.60
2022-09-10T14:02:45.165Z,36.90
2022-09-10T14:05:51.940Z,36.90
2022-09-10T14:08:57.470Z,37.10
2022-09-10T14:12:03.496Z,37.10
2022-09-10T14:15:07.319Z,37.20
2022-09-10T14:18:10.743Z,37.10
2022-09-10T14:21:15.111Z,37.20
2022-09-10T14:24:39.874Z,37.30
2022-09-10T14:27:44.120Z,37.40
2022-09-10T14:30:55.657Z,36.80
2022-09-10T14:34:23.756Z,36.60
2022-09-10T14:37:34.086Z,36.60
2022-09-10T14:40:37.463Z,36.60
2022-09-10T14:43:40.779Z,36.90
2022-09-10T14:47:07.692Z,36.60
2022-09-10T14:50:27.993Z,36.90
2022-09-10T14:53:29.942Z,36.90
2022-09-10T14:56:35.541Z,36.90
2022-09-10T14:59:39.913Z,37.00
2022-09-10T15:02:42.150Z,36.60
2022-09-10T15:05:44.323Z,36.70
2022-09-10T15:08:47.760Z,36.70
2022-09-10T15:12:05.109Z,36.70
2022-09-10T15:15:17.228Z,36.80
2022-09-10T15:18:19.540Z,36.40
2022-09-10T15:21:22.304Z,36.50
2022-09-10T15:24:25.922Z,36.10
2022-09-10T15:27:28.598Z,36.30
2022-09-10T15:30:30.476Z,36.60
2022-09-10T15:33:32.556Z,36.70
2022-09-10T15:36:37.102Z,36.90
2022-09-10T15:39:39.324Z,37.10
2022-09-10T15:42:41.902Z,37.10
2022-09-10T15:45:49.849Z,36.70
2022-09-10T15:48:53.751Z,36.00
2022-09-10T15:51:56.091Z,36.20
2022-09-10T15:54:57.955Z,35.80
2022-09-10T15:58:00.327Z,35.60
2022-09-10T16:01:15.015Z,35.80
2022-09-10T16:04:17.276Z,35.30
2022-09-10T16:07:19.124Z,35.20
2022-09-10T16:10:21.391Z,35.20
2022-09-10T16:13:24.617Z,35.20
2022-09-10T16:16:27.233Z,35.50
2022-09-10T16:19:29.069Z,35.70
2022-09-10T16:22:31.225Z,35.70
2022-09-10T16:25:33.147Z,35.90
2022-09-10T16:28:35.752Z,35.80
2022-09-10T16:31:41.379Z,35.90
2022-09-10T16:34:43.502Z,35.50
2022-09-10T16:37:45.480Z,35.70
2022-09-10T16:40:47.539Z,36.00
2022-09-10T16:43:50.363Z,35.90
2022-09-10T16:46:52.580Z,36.10
2022-09-10T16:49:54.433Z,36.20
2022-09-10T16:52:56.663Z,36.30
2022-09-10T16:56:03.576Z,36.40
2022-09-10T16:59:07.621Z,36.30
2022-09-10T17:02:10.271Z,36.40
2022-09-10T17:05:13.691Z,36.40
2022-09-10T17:08:15.791Z,36.30
2022-09-10T17:11:19.689Z,36.20
2022-09-10T17:14:21.751Z,36.20
2022-09-10T17:17:24.275Z,36.10
2022-09-10T17:20:27.945Z,36.00
2022-09-10T17:23:30.043Z,36.00
2022-09-10T17:26:33.010Z,36.00
2022-09-10T17:29:35.310Z,35.80
2022-09-10T17:32:37.154Z,35.60
2022-09-10T17:35:39.194Z,35.60
2022-09-10T17:38:41.126Z,35.40
2022-09-10T17:41:43.779Z,35.40
2022-09-10T17:44:47.163Z,35.40
2022-09-10T17:47:49.321Z,35.30
2022-09-10T17:50:51.260Z,35.20
2022-09-10T17:53:55.222Z,35.10
2022-09-10T17:56:57.369Z,35.00
2022-09-10T17:59:59.447Z,34.80
2022-09-10T18:03:01.365Z,35.10
2022-09-10T18:06:09.283Z,35.20
2022-09-10T18:09:11.336Z,35.30
2022-09-10T18:12:14.964Z,35.50
2022-09-10T18:15:17.018Z,35.50
2022-09-10T18:18:19.117Z,35.50
2022-09-10T18:21:29.498Z,35.50
2022-09-10T18:24:31.604Z,35.60
2022-09-10T18:27:33.627Z,35.60
2022-09-10T18:30:35.769Z,35.50
2022-09-10T18:33:39.681Z,35.50
2022-09-10T18:36:43.980Z,35.50
2022-09-10T18:39:46.062Z,35.50
2022-09-10T18:42:48.257Z,35.40
2022-09-10T18:45:50.358Z,35.40
2022-09-10T18:48:53.345Z,35.40
2022-09-10T18:51:56.467Z,35.40
2022-09-10T18:54:58.503Z,35.30
2022-09-10T18:58:01.023Z,35.20
2022-09-10T19:01:05.985Z,35.20
2022-09-10T19:04:09.218Z,35.10
2022-09-10T19:07:11.402Z,35.70
2022-09-10T19:10:13.241Z,35.90
2022-09-10T19:13:15.679Z,35.90
2022-09-10T19:16:18.193Z,35.80
2022-09-10T19:19:26.910Z,35.80
2022-09-10T19:22:28.898Z,35.90
2022-09-10T19:25:31.032Z,35.90
2022-09-10T19:28:34.097Z,36.00
2022-09-10T19:31:36.183Z,35.90
2022-09-10T19:34:39.038Z,35.90
2022-09-10T19:37:41.343Z,35.90
2022-09-10T19:40:43.276Z,36.00
2022-09-10T19:43:50.116Z,35.90
2022-09-10T19:46:52.016Z,35.90
2022-09-10T19:49:54.043Z,36.00
2022-09-10T19:52:56.299Z,36.00
2022-09-10T19:56:06.334Z,36.00
2022-09-10T19:59:09.830Z,36.00
2022-09-10T20:02:12.321Z,36.00
2022-09-10T20:05:14.512Z,36.10
2022-09-10T20:08:16.685Z,36.10
2022-09-10T20:11:21.689Z,36.10
2022-09-10T20:14:24.518Z,36.10
2022-09-10T20:17:26.463Z,36.10
2022-09-10T20:20:28.934Z,36.20
2022-09-10T20:23:30.783Z,36.20
2022-09-10T20:26:34.929Z,36.10
2022-09-10T20:29:36.802Z,36.10
2022-09-10T20:32:38.947Z,35.90
2022-09-10T20:35:43.845Z,36.00
2022-09-10T20:38:46.865Z,36.10
2022-09-10T20:41:49.082Z,36.20
2022-09-10T20:44:51.694Z,36.30
2022-09-10T20:47:53.557Z,36.30
2022-09-10T20:50:58.476Z,36.40
2022-09-10T20:54:01.587Z,36.40
2022-09-10T20:57:03.944Z,36.40
2022-09-10T21:00:07.632Z,36.50
2022-09-10T21:03:10.197Z,36.50
2022-09-10T21:06:13.847Z,36.50
2022-09-10T21:09:16.029Z,36.50
2022-09-10T21:12:17.904Z,36.50
2022-09-10T21:15:19.979Z,36.50
2022-09-10T21:18:21.819Z,36.50
2022-09-10T21:21:26.269Z,36.50
2022-09-10T21:24:28.318Z,36.50
2022-09-10T21:27:30.387Z,36.50
2022-09-10T21:30:32.487Z,36.50
2022-09-10T21:33:36.023Z,36.50
2022-09-10T21:36:38.897Z,36.50
2022-09-10T21:39:40.959Z,36.60
2022-09-10T21:42:43.740Z,36.70
2022-09-10T21:46:01.557Z,36.70
2022-09-10T21:49:03.728Z,36.70
2022-09-10T21:52:05.859Z,36.80
2022-09-10T21:55:08.039Z,36.80
2022-09-10T21:58:10.152Z,36.80
2022-09-10T22:01:23.473Z,36.70
2022-09-10T22:04:25.717Z,36.70
2022-09-10T22:07:29.058Z,36.70
2022-09-10T22:10:32.244Z,36.70
2022-09-10T22:13:34.647Z,36.80
2022-09-10T22:16:36.975Z,36.80
2022-09-10T22:19:39.026Z,36.80
2022-09-10T22:22:41.071Z,36.90
2022-09-10T22:25:42.934Z,36.80
2022-09-10T22:28:45.798Z,36.90
2022-09-10T22:31:49.623Z,36.90
2022-09-10T22:34:51.696Z,36.90
2022-09-10T22:37:56.053Z,36.90
2022-09-10T22:41:02.403Z,36.90
2022-09-10T22:44:05.031Z,36.90
2022-09-10T22:47:08.037Z,37.00
2022-09-10T22:50:10.399Z,36.90
2022-09-10T22:53:14.433Z,36.90
2022-09-10T22:56:22.100Z,36.90
2022-09-10T22:59:24.236Z,36.90
2022-09-10T23:02:26.072Z,36.90
2022-09-10T23:05:28.367Z,36.90
2022-09-10T23:08:32.586Z,36.90
2022-09-10T23:11:36.574Z,36.90
2022-09-10T23:14:39.089Z,36.90
2022-09-10T23:17:41.455Z,36.90
2022-09-10T23:20:43.655Z,36.90
2022-09-10T23:23:51.099Z,36.90
2022-09-10T23:26:54.023Z,36.90
2022-09-10T23:29:56.693Z,36.90
2022-09-10T23:32:58.552Z,36.90
2022-09-10T23:36:01.680Z,36.80
2022-09-10T23:39:07.469Z,36.80
2022-09-10T23:42:09.540Z,36.80
2022-09-10T23:45:11.559Z,36.80
2022-09-10T23:48:13.584Z,36.80
2022-09-10T23:51:17.692Z,36.80
2022-09-10T23:54:19.793Z,36.80
2022-09-10T23:57:21.690Z,36.80
